createdAt,value
2023-04-26T00:00:24.517Z,73.6
2023-04-26T00:12:24.529Z,75.0
2023-04-26T00:24:24.529Z,74.4
2023-04-26T00:36:24.425Z,74.8
2023-04-26T00:48:24.424Z,75.4
2023-04-26T01:00:24.537Z,76.7
2023-04-26T01:12:24.547Z,77.1
2023-04-26T01:24:24.489Z,77.9
2023-04-26T01:36:24.530Z,79.5
2023-04-26T01:48:24.437Z,79.0
2023-04-26T02:00:24.521Z,79.6
2023-04-26T02:12:24.527Z,80.3
2023-04-26T02:24:24.554Z,81.7
2023-04-26T02:36:24.422Z,81.8
2023-04-26T02:48:24.425Z,81.6
2023-04-26T03:00:24.489Z,84.4
2023-04-26T03:12:24.425Z,84.8
2023-04-26T03:24:24.476Z,89.6
2023-04-26T03:36:24.542Z,90.6
2023-04-26T03:48:24.523Z,91.7
2023-04-26T04:00:24.522Z,92.5
2023-04-26T04:12:24.417Z,92.9
2023-04-26T04:24:24.441Z,89.8
2023-04-26T04:36:24.516Z,91.2
2023-04-26T04:48:24.436Z,90.4
2023-04-26T05:00:24.547Z,90.4
2023-04-26T05:12:24.525Z,90.6
2023-04-26T05:24:24.424Z,91.1
2023-04-26T05:36:24.504Z,90.5
2023-04-26T05:48:24.426Z,89.8
2023-04-26T06:00:24.429Z,86.4
2023-04-26T06:12:24.415Z,81.0
2023-04-26T06:24:24.418Z,78.6
2023-04-26T06:36:24.416Z,76.5
2023-04-26T06:48:24.460Z,71.7
2023-04-26T07:00:24.436Z,72.5
2023-04-26T07:12:24.435Z,70.3
2023-04-26T07:24:24.752Z,67.1
2023-04-26T07:36:25.276Z,65.5
2023-04-26T07:48:24.461Z,62.8
2023-04-26T08:00:24.590Z,64.9
2023-04-26T08:12:24.433Z,60.2
2023-04-26T08:24:24.423Z,60.3
2023-04-26T08:36:24.557Z,62.5
2023-04-26T08:48:24.569Z,64.9
2023-04-26T09:00:24.550Z,58.1
2023-04-26T09:12:24.513Z,55.0
2023-04-26T09:24:24.432Z,56.6
2023-04-26T09:36:24.440Z,57.5
2023-04-26T09:48:24.479Z,57.5
2023-04-26T10:00:24.417Z,52.3
2023-04-26T10:12:24.488Z,51.0
2023-04-26T10:24:24.496Z,53.1
2023-04-26T10:36:24.529Z,52.4
2023-04-26T10:48:24.465Z,54.3
2023-04-26T11:00:24.550Z,47.9
2023-04-26T11:12:24.441Z,51.4
2023-04-26T11:24:24.501Z,49.0
2023-04-26T11:36:24.545Z,53.2
2023-04-26T11:48:24.465Z,47.3
2023-04-26T12:00:24.537Z,49.7
2023-04-26T12:12:24.446Z,48.4
2023-04-26T12:24:24.474Z,47.6
2023-04-26T12:36:24.551Z,48.5
2023-04-26T12:48:24.426Z,44.0
2023-04-26T13:00:24.425Z,42.6
2023-04-26T13:12:24.520Z,45.0
2023-04-26T13:24:24.515Z,41.2
2023-04-26T13:36:24.508Z,43.0
2023-04-26T13:48:24.429Z,43.1
2023-04-26T14:00:24.451Z,43.2
2023-04-26T14:12:24.417Z,42.3
2023-04-26T14:24:24.538Z,44.6
2023-04-26T14:36:24.532Z,44.3
2023-04-26T14:48:24.423Z,42.9
2023-04-26T15:00:24.425Z,44.7
2023-04-26T15:12:24.516Z,43.5
2023-04-26T15:24:24.534Z,43.7
2023-04-26T15:36:24.530Z,43.9
2023-04-26T15:48:24.448Z,43.0
2023-04-26T16:00:24.427Z,44.1
2023-04-26T16:12:24.520Z,45.1
2023-04-26T16:24:24.507Z,45.3
2023-04-26T16:36:24.479Z,47.8
2023-04-26T16:48:24.481Z,49.6
2023-04-26T17:00:24.527Z,45.4
2023-04-26T17:12:24.734Z,45.3
2023-04-26T17:24:24.530Z,45.9
2023-04-26T17:36:24.444Z,44.3
2023-04-26T17:48:24.449Z,45.9
2023-04-26T18:00:24.418Z,46.8
2023-04-26T18:12:24.535Z,46.4
2023-04-26T18:24:24.419Z,46.8
2023-04-26T18:36:24.541Z,49.4
2023-04-26T18:48:24.454Z,50.4
2023-04-26T19:00:24.494Z,51.3
2023-04-26T19:12:24.510Z,50.9
2023-04-26T19:24:24.551Z,51.3
2023-04-26T19:36:24.450Z,51.8
2023-04-26T19:48:24.427Z,52.5
2023-04-26T20:00:24.535Z,55.3
2023-04-26T20:12:24.522Z,54.9
2023-04-26T20:24:24.538Z,56.4
2023-04-26T20:36:24.420Z,54.9
2023-04-26T20:48:24.506Z,55.5
2023-04-26T21:00:24.545Z,56.8
2023-04-26T21:12:24.530Z,57.2
2023-04-26T21:24:24.624Z,58.0
2023-04-26T21:36:24.549Z,55.8
2023-04-26T21:48:24.419Z,57.6
2023-04-26T22:00:24.528Z,57.3
2023-04-26T22:12:24.428Z,58.0
2023-04-26T22:24:24.540Z,58.1
2023-04-26T22:36:24.441Z,58.4
2023-04-26T22:48:24.513Z,60.2
2023-04-26T23:00:25.885Z,60.4
2023-04-26T23:12:24.542Z,60.7
2023-04-26T23:24:24.512Z,62.0
2023-04-26T23:36:24.428Z,61.3
2023-04-26T23:48:24.497Z,64.5
